Time;durP1;ratioP1;P1;durP2;ratioP2;P2;SDS_P1;SDS_P2;PMS_P1;PMS_P2;Temp;Humidity;BMP_temperature;BMP_pressure;BME280_temperature;BME280_humidity;BME280_pressure;Samples;Min_cycle;Max_cycle;Signal;HPM_P1;HPM_P2
2023/06/08 00:02:03;;;;;;;7.90;5.60;;;;;;;27.56;37.50;100553.75;107998;1254;60396;-66
2023/06/08 00:04:32;;;;;;;9.10;5.40;;;;;;;26.34;39.94;100565.53;108053;1254;72758;-66
2023/06/08 00:07:03;;;;;;;11.90;5.10;;;;;;;27.68;37.85;100568.88;108032;1255;70302;-67
2023/06/08 00:09:31;;;;;;;11.00;5.70;;;;;;;27.85;37.39;100565.16;108025;1254;72648;-67
2023/06/08 00:11:58;;;;;;;11.40;5.50;;;;;;;28.07;37.24;100560.98;108011;1257;61773;-67
2023/06/08 00:14:27;;;;;;;7.20;5.40;;;;;;;27.73;37.62;100567.35;108031;1255;59054;-68
2023/06/08 00:16:54;;;;;;;6.90;4.70;;;;;;;27.39;37.97;100572.42;108025;1254;72535;-67
2023/06/08 00:19:22;;;;;;;5.50;4.50;;;;;;;27.37;38.00;100574.24;108089;1255;70123;-67
2023/06/08 00:21:51;;;;;;;9.10;5.40;;;;;;;27.05;38.29;100577.80;108079;1257;72906;-67
2023/06/08 00:24:27;;;;;;;9.30;5.60;;;;;;;26.74;39.18;100574.00;108088;1254;60596;-66
2023/06/08 00:26:59;;;;;;;8.10;5.20;;;;;;;26.88;39.40;100571.89;108082;1253;60328;-67
2023/06/08 00:29:27;;;;;;;11.00;5.50;;;;;;;26.99;39.01;100570.60;108035;1255;75190;-66
2023/06/08 00:31:54;;;;;;;7.10;5.50;;;;;;;27.16;38.91;100572.02;108018;1255;69081;-66
2023/06/08 00:34:21;;;;;;;8.10;5.40;;;;;;;27.68;37.82;100569.98;108050;1257;72664;-66
2023/06/08 00:36:49;;;;;;;11.30;5.60;;;;;;;27.60;38.16;100565.03;108038;1253;60458;-66
2023/06/08 00:39:17;;;;;;;10.40;5.70;;;;;;;27.54;38.43;100562.20;108069;1253;60402;-67
2023/06/08 00:41:44;;;;;;;8.70;5.80;;;;;;;27.59;38.34;100565.19;108077;1254;73794;-67
2023/06/08 00:44:12;;;;;;;9.20;5.60;;;;;;;27.58;38.44;100566.16;108043;1254;69883;-66
2023/06/08 00:46:40;;;;;;;7.70;5.50;;;;;;;27.30;38.65;100565.69;108027;1254;71348;-67
2023/06/08 00:49:08;;;;;;;8.50;6.00;;;;;;;27.30;38.62;100562.48;108080;1254;61649;-67
2023/06/08 00:51:41;;;;;;;7.10;5.40;;;;;;;27.72;38.50;100566.81;108026;1255;60264;-68
2023/06/08 00:54:12;;;;;;;7.90;5.70;;;;;;;27.79;38.33;100562.55;108141;1254;73866;-67
2023/06/08 00:56:40;;;;;;;8.00;6.00;;;;;;;27.59;39.04;100561.70;108061;1254;70533;-66
2023/06/08 00:59:09;;;;;;;9.90;6.00;;;;;;;27.53;39.54;100560.22;108148;1260;71470;-68
2023/06/08 01:01:38;;;;;;;8.30;6.20;;;;;;;27.46;39.54;100551.48;108161;1260;61782;-67
2023/06/08 01:04:06;;;;;;;9.80;6.70;;;;;;;26.25;41.81;100550.29;108064;1254;59410;-68
2023/06/08 01:06:45;;;;;;;11.50;6.90;;;;;;;27.18;40.40;100548.00;108120;1254;73112;-67
2023/06/08 01:09:29;;;;;;;9.50;6.80;;;;;;;27.49;39.82;100546.36;108032;1260;70758;-67
2023/06/08 01:12:23;;;;;;;10.00;6.70;;;;;;;27.53;39.97;100546.23;108072;1257;71792;-68
2023/06/08 01:15:07;;;;;;;11.40;7.10;;;;;;;26.86;41.25;100545.00;108066;1255;62080;-68
2023/06/08 01:18:04;;;;;;;10.30;7.10;;;;;;;27.05;40.89;100541.39;107967;1254;60332;-68
2023/06/08 01:20:49;;;;;;;8.90;6.80;;;;;;;26.82;41.02;100538.72;108053;1257;73879;-67
2023/06/08 01:23:34;;;;;;;8.30;6.10;;;;;;;26.55;41.72;100541.77;108072;1254;70670;-68
2023/06/08 01:26:02;;;;;;;9.00;5.70;;;;;;;26.73;41.00;100542.54;108098;1253;72628;-66
2023/06/08 01:28:30;;;;;;;10.20;6.80;;;;;;;27.13;40.55;100539.09;108046;1255;60839;-68
2023/06/08 01:30:58;;;;;;;9.70;6.10;;;;;;;27.49;39.96;100542.72;107999;1254;60014;-67
2023/06/08 01:33:28;;;;;;;8.70;6.80;;;;;;;27.64;39.53;100540.77;107989;1254;74404;-68
2023/06/08 01:36:22;;;;;;;9.90;6.60;;;;;;;27.57;39.81;100536.66;107789;1255;68869;-66
2023/06/08 01:39:07;;;;;;;10.00;6.90;;;;;;;27.00;40.53;100528.38;107991;1260;72702;-67
2023/06/08 01:41:37;;;;;;;8.10;5.80;;;;;;;26.71;40.80;100522.90;107984;1256;61642;-67
2023/06/08 01:44:05;;;;;;;7.80;5.40;;;;;;;26.30;40.88;100524.16;107958;1254;60325;-67
2023/06/08 01:46:32;;;;;;;11.80;5.50;;;;;;;26.03;41.20;100527.11;107678;1260;72814;-67
2023/06/08 01:49:02;;;;;;;9.80;5.40;;;;;;;26.58;40.26;100535.52;107998;1254;69963;-67
2023/06/08 01:51:29;;;;;;;8.30;5.30;;;;;;;26.68;40.08;100533.89;108026;1260;71387;-67
2023/06/08 01:54:02;;;;;;;7.80;5.70;;;;;;;26.85;39.83;100533.80;107784;1257;61658;-65
2023/06/08 01:56:31;;;;;;;8.40;5.80;;;;;;;27.03;39.75;100533.11;107976;1255;60531;-67
2023/06/08 01:59:01;;;;;;;7.60;5.70;;;;;;;26.91;40.18;100529.30;107924;1260;73303;-67
2023/06/08 02:01:31;;;;;;;9.30;6.10;;;;;;;26.69;40.51;100525.25;107919;1259;72151;-67
2023/06/08 02:04:00;;;;;;;13.50;6.00;;;;;;;26.93;40.33;100525.95;107984;1258;72647;-66
2023/06/08 02:06:32;;;;;;;9.70;5.40;;;;;;;26.99;40.07;100520.52;108029;1256;60431;-67
2023/06/08 02:09:00;;;;;;;8.60;5.10;;;;;;;27.03;39.97;100522.87;108018;1254;60191;-67
2023/06/08 02:11:27;;;;;;;9.40;5.90;;;;;;;27.10;39.82;100518.21;108003;1254;72329;-67
2023/06/08 02:13:57;;;;;;;9.60;5.60;;;;;;;27.20;39.36;100522.92;108023;1257;70529;-67
2023/06/08 02:16:25;;;;;;;6.90;5.20;;;;;;;27.19;39.57;100527.84;108005;1254;72506;-66
2023/06/08 02:18:52;;;;;;;7.10;5.30;;;;;;;27.37;39.19;100530.04;108021;1254;60675;-67
2023/06/08 02:21:19;;;;;;;8.90;5.80;;;;;;;27.40;39.02;100531.77;108004;1254;60431;-68
2023/06/08 02:23:47;;;;;;;8.00;5.50;;;;;;;27.42;39.07;100535.35;107995;1259;73802;-67
2023/06/08 02:26:17;;;;;;;7.00;5.50;;;;;;;27.13;39.37;100538.22;107981;1254;70681;-67
2023/06/08 02:28:45;;;;;;;;;;;;;;;27.01;39.74;100537.58;108037;1254;71581;-68
2023/06/08 02:31:12;;;;;;;8.00;5.60;;;;;;;26.91;40.12;100537.73;108045;1257;60391;-67
2023/06/08 02:33:41;;;;;;;8.70;5.80;;;;;;;26.76;40.22;100537.21;108214;1254;59636;-67
2023/06/08 02:36:14;;;;;;;5.70;4.80;;;;;;;27.44;39.21;100536.70;108039;1254;72202;-68
2023/06/08 02:38:42;;;;;;;9.40;6.00;;;;;;;26.77;40.15;100543.02;108040;1254;70051;-67
2023/06/08 02:41:11;;;;;;;8.10;6.20;;;;;;;26.90;40.28;100537.80;108002;1257;72685;-68
2023/06/08 02:43:40;;;;;;;9.20;5.70;;;;;;;26.74;40.54;100539.56;108011;1254;61688;-67
2023/06/08 02:46:07;;;;;;;10.50;5.90;;;;;;;26.58;40.92;100538.59;108060;1254;60411;-67
2023/06/08 02:48:35;;;;;;;13.10;6.70;;;;;;;26.82;40.63;100537.47;108013;1257;72531;-66
2023/06/08 02:51:03;;;;;;;6.80;5.40;;;;;;;26.95;40.44;100538.39;108037;1254;68825;-67
2023/06/08 02:53:30;;;;;;;9.00;5.70;;;;;;;27.03;40.33;100533.81;108014;1254;72680;-66
2023/06/08 02:55:58;;;;;;;8.00;5.80;;;;;;;25.85;42.38;100541.28;108002;1253;60388;-68
2023/06/08 02:58:30;;;;;;;7.80;6.00;;;;;;;25.71;42.97;100538.79;107974;1254;60437;-66
2023/06/08 03:01:00;;;;;;;9.10;6.20;;;;;;;26.86;41.12;100536.94;107980;1253;73810;-67
2023/06/08 03:03:56;;;;;;;13.10;6.20;;;;;;;27.15;40.59;100542.56;108104;1254;68771;-67
2023/06/08 03:06:33;;;;;;;10.20;6.60;;;;;;;27.16;40.38;100543.02;108084;1254;72563;-67
2023/06/08 03:09:08;;;;;;;8.60;6.50;;;;;;;27.07;40.55;100544.98;108101;1254;61636;-67
2023/06/08 03:11:36;;;;;;;9.50;5.80;;;;;;;27.27;40.38;100545.67;108094;1254;60398;-68
2023/06/08 03:14:04;;;;;;;8.80;6.30;;;;;;;26.75;40.92;100546.19;108074;1254;72628;-69
2023/06/08 03:16:32;;;;;;;13.40;6.50;;;;;;;25.29;43.63;100551.91;108069;1254;72722;-69
2023/06/08 03:19:02;;;;;;;6.50;4.20;;;;;;;25.80;42.92;100550.73;108082;1254;72800;-66
2023/06/08 03:21:31;;;;;;;8.30;6.30;;;;;;;25.91;42.50;100556.31;108132;1254;61597;-66
2023/06/08 03:23:58;;;;;;;8.70;5.90;;;;;;;26.08;42.69;100557.25;107956;1253;59616;-67
2023/06/08 03:26:26;;;;;;;8.80;6.20;;;;;;;25.95;43.18;100555.64;108097;1254;74529;-67
2023/06/08 03:28:55;;;;;;;9.70;6.50;;;;;;;26.97;41.59;100557.70;107995;1254;69231;-68
2023/06/08 03:31:24;;;;;;;10.80;6.30;;;;;;;26.58;42.20;100553.18;108024;1257;72744;-67
2023/06/08 03:33:52;;;;;;;13.10;7.40;;;;;;;27.33;40.78;100553.21;108068;1254;61653;-67
2023/06/08 03:36:33;;;;;;;10.50;6.20;;;;;;;27.47;40.36;100551.77;108066;1253;60682;-67
2023/06/08 03:39:02;;;;;;;11.70;6.50;;;;;;;27.54;40.14;100550.54;108026;1254;74087;-66
2023/06/08 03:41:30;;;;;;;9.60;6.40;;;;;;;27.29;40.54;100547.05;108104;1254;70586;-66
2023/06/08 03:43:59;;;;;;;10.60;6.80;;;;;;;26.79;41.47;100546.27;108076;1253;72657;-68
2023/06/08 03:46:27;;;;;;;12.00;6.70;;;;;;;26.56;41.74;100548.67;108048;1254;62022;-66
2023/06/08 03:48:56;;;;;;;10.60;6.90;;;;;;;26.31;42.02;100547.73;108056;1254;60416;-67
2023/06/08 03:51:23;;;;;;;10.70;6.30;;;;;;;26.61;41.33;100549.09;108001;1259;76065;-67
2023/06/08 03:53:51;;;;;;;8.50;5.90;;;;;;;26.75;40.82;100551.48;108036;1253;70751;-68
2023/06/08 03:56:19;;;;;;;9.40;6.20;;;;;;;27.05;39.95;100552.15;108005;1253;72838;-67
2023/06/08 03:58:51;;;;;;;10.60;5.60;;;;;;;27.04;39.77;100557.64;108114;1257;60832;-68
2023/06/08 04:01:22;;;;;;;11.70;6.10;;;;;;;26.57;40.53;100555.59;108087;1257;60981;-67
2023/06/08 04:03:53;;;;;;;7.30;5.10;;;;;;;26.48;40.65;100555.70;108103;1254;72077;-67
2023/06/08 04:06:24;;;;;;;8.80;5.80;;;;;;;27.52;39.16;100553.25;108093;1254;70416;-67
2023/06/08 04:08:54;;;;;;;10.40;6.10;;;;;;;27.79;38.66;100556.21;108100;1254;72545;-66
2023/06/08 04:11:21;;;;;;;7.40;5.50;;;;;;;26.51;40.83;100559.63;108131;1254;64030;-67
2023/06/08 04:13:49;;;;;;;9.60;6.40;;;;;;;26.51;41.21;100559.63;107992;1260;60540;-68
2023/06/08 04:16:18;;;;;;;9.50;6.10;;;;;;;26.26;41.88;100556.33;107984;1253;73910;-67
2023/06/08 04:18:49;;;;;;;12.40;6.80;;;;;;;26.55;41.72;100556.55;108056;1254;70084;-70
2023/06/08 04:21:18;;;;;;;8.20;6.60;;;;;;;26.68;41.83;100553.27;108090;1254;72051;-67
2023/06/08 04:23:46;;;;;;;9.30;6.30;;;;;;;26.74;41.76;100553.13;108078;1253;61920;-68
2023/06/08 04:26:17;;;;;;;11.50;6.60;;;;;;;26.92;41.50;100550.35;108092;1254;60080;-67
2023/06/08 04:28:48;;;;;;;6.50;5.30;;;;;;;27.81;40.09;100543.91;107977;1253;73514;-68
2023/06/08 04:31:19;;;;;;;10.80;6.60;;;;;;;28.14;39.44;100541.66;108015;1254;70468;-68
2023/06/08 04:33:50;;;;;;;8.60;7.00;;;;;;;28.00;39.53;100544.65;108000;1254;71630;-69
2023/06/08 04:36:18;;;;;;;9.80;6.60;;;;;;;27.91;39.64;100544.39;108031;1254;61654;-68
2023/06/08 04:38:46;;;;;;;9.40;7.10;;;;;;;27.68;39.96;100547.05;108079;1254;60636;-68
2023/06/08 04:41:18;;;;;;;10.90;7.00;;;;;;;27.89;39.30;100549.88;108099;1253;71948;-67
2023/06/08 04:43:49;;;;;;;9.40;7.00;;;;;;;27.69;39.88;100553.25;108025;1254;70591;-68
2023/06/08 04:46:22;;;;;;;9.90;7.00;;;;;;;28.08;39.48;100542.61;108012;1254;73371;-68
2023/06/08 04:48:50;;;;;;;11.20;7.00;;;;;;;28.18;39.50;100546.60;108038;1254;61722;-69
2023/06/08 04:51:23;;;;;;;9.00;6.60;;;;;;;28.20;39.57;100544.21;108091;1257;60382;-67
2023/06/08 04:53:54;;;;;;;10.10;7.00;;;;;;;28.25;39.65;100546.23;108093;1254;72624;-67
2023/06/08 04:56:29;;;;;;;11.10;7.40;;;;;;;27.18;41.56;100550.70;108143;1257;69908;-67
2023/06/08 04:58:57;;;;;;;9.00;6.90;;;;;;;27.07;42.06;100556.70;108018;1254;72658;-67
2023/06/08 05:01:28;;;;;;;8.40;6.60;;;;;;;27.51;41.48;100556.23;108148;1254;60419;-67
2023/06/08 05:03:55;;;;;;;11.10;6.70;;;;;;;27.84;41.21;100558.63;108089;1254;59558;-68
2023/06/08 05:06:23;;;;;;;10.90;6.10;;;;;;;27.98;40.97;100556.60;108067;1253;72776;-66
2023/06/08 05:08:53;;;;;;;8.40;6.30;;;;;;;27.67;41.65;100557.14;108005;1253;70341;-68
2023/06/08 05:11:23;;;;;;;11.80;6.00;;;;;;;27.69;42.08;100555.22;108038;1257;72667;-68
2023/06/08 05:13:50;;;;;;;11.30;6.60;;;;;;;27.70;41.77;100555.20;108017;1254;60392;-68
2023/06/08 05:16:19;;;;;;;10.50;6.50;;;;;;;27.92;41.84;100554.14;108053;1253;60225;-68
2023/06/08 05:18:46;;;;;;;10.30;6.60;;;;;;;28.19;41.19;100548.02;108103;1257;73868;-68
2023/06/08 05:21:13;;;;;;;11.40;6.70;;;;;;;27.87;42.00;100552.70;108097;1254;70118;-67
2023/06/08 05:23:43;;;;;;;12.00;6.20;;;;;;;28.01;41.64;100550.56;108038;1253;71425;-68
2023/06/08 05:26:10;;;;;;;8.30;6.20;;;;;;;27.93;41.43;100556.08;108014;1254;60432;-67
2023/06/08 05:28:38;;;;;;;8.30;6.20;;;;;;;28.46;40.54;100554.62;108027;1254;60357;-67
2023/06/08 05:31:05;;;;;;;14.60;6.30;;;;;;;28.58;40.01;100555.95;108086;1257;72984;-67
2023/06/08 05:33:37;;;;;;;13.30;6.30;;;;;;;29.05;39.05;100553.23;108048;1254;69687;-68
2023/06/08 05:36:06;;;;;;;9.40;6.60;;;;;;;28.85;38.99;100556.52;108102;1254;72819;-69
2023/06/08 05:38:36;;;;;;;8.70;5.70;;;;;;;28.75;38.93;100557.36;108069;1254;60482;-69
2023/06/08 05:41:06;;;;;;;10.30;5.70;;;;;;;29.03;38.47;100553.85;108121;1254;60193;-69
2023/06/08 05:43:33;;;;;;;10.70;5.90;;;;;;;29.12;38.64;100553.38;108102;1254;73920;-68
2023/06/08 05:46:03;;;;;;;11.70;6.30;;;;;;;29.17;38.20;100555.92;108075;1253;69820;-68
2023/06/08 05:48:30;;;;;;;9.30;6.10;;;;;;;29.80;37.23;100558.39;108063;1254;71991;-69
2023/06/08 05:50:58;;;;;;;9.40;6.40;;;;;;;30.01;36.81;100559.14;108065;1257;60590;-68
2023/06/08 05:53:25;;;;;;;9.40;6.20;;;;;;;30.01;36.73;100560.65;108075;1254;60437;-68
2023/06/08 05:55:53;;;;;;;13.40;5.60;;;;;;;30.31;36.48;100562.70;108088;1254;72551;-68
2023/06/08 05:58:24;;;;;;;9.10;5.60;;;;;;;30.53;35.63;100564.86;108106;1254;70759;-69
2023/06/08 06:01:04;;;;;;;8.10;5.40;;;;;;;31.43;34.13;100568.91;108019;1254;71966;-68
2023/06/08 06:03:31;;;;;;;7.80;4.90;;;;;;;31.90;33.68;100571.02;108009;1253;61796;-68
2023/06/08 06:05:59;;;;;;;9.60;5.40;;;;;;;32.00;33.12;100577.17;108018;1253;60472;-68
2023/06/08 06:08:28;;;;;;;7.60;5.50;;;;;;;31.78;33.27;100582.92;108048;1253;72545;-67
2023/06/08 06:10:58;;;;;;;7.50;5.10;;;;;;;31.98;32.96;100581.86;108020;1254;68935;-68
2023/06/08 06:13:27;;;;;;;6.70;5.10;;;;;;;31.73;33.06;100585.96;107999;1254;72783;-69
2023/06/08 06:15:54;;;;;;;6.90;5.30;;;;;;;31.64;33.26;100584.83;108010;1255;60388;-69
2023/06/08 06:18:23;;;;;;;6.90;5.70;;;;;;;31.67;33.32;100587.77;108075;1254;60296;-67
2023/06/08 06:20:51;;;;;;;12.80;5.70;;;;;;;31.97;32.86;100590.73;108001;1254;73848;-67
2023/06/08 06:23:18;;;;;;;7.40;5.30;;;;;;;31.86;32.83;100590.63;108104;1253;70153;-67
2023/06/08 06:25:45;;;;;;;7.40;5.30;;;;;;;32.06;32.50;100588.90;108099;1254;71419;-68
2023/06/08 06:28:13;;;;;;;8.00;5.40;;;;;;;32.26;32.28;100582.59;108068;1254;60604;-67
2023/06/08 06:30:40;;;;;;;9.70;5.50;;;;;;;32.06;32.48;100586.28;108027;1253;60507;-66
2023/06/08 06:33:10;;;;;;;10.00;5.10;;;;;;;31.28;33.60;100593.16;108133;1254;73856;-69
2023/06/08 06:35:37;;;;;;;12.70;6.20;;;;;;;31.48;33.14;100603.08;108035;1254;69947;-67
2023/06/08 06:38:04;;;;;;;11.00;5.70;;;;;;;32.36;31.66;100603.73;108162;1253;72410;-67
2023/06/08 06:40:32;;;;;;;8.10;5.20;;;;;;;32.93;31.10;100608.75;108035;1252;61739;-68
2023/06/08 06:42:59;;;;;;;22.50;6.30;;;;;;;33.17;30.88;100608.98;108094;1253;59069;-67
2023/06/08 06:45:52;;;;;;;8.80;5.70;;;;;;;33.20;30.79;100614.30;108007;1253;73509;-69
2023/06/08 06:48:20;;;;;;;10.50;6.10;;;;;;;33.26;30.57;100613.86;108026;1254;68900;-68
2023/06/08 06:50:52;;;;;;;8.30;5.60;;;;;;;33.30;30.34;100613.14;108039;1254;72339;-67
2023/06/08 06:53:23;;;;;;;10.60;5.60;;;;;;;32.62;31.07;100609.63;108104;1257;62093;-67
2023/06/08 06:55:50;;;;;;;9.90;5.50;;;;;;;32.19;31.46;100612.71;108073;1253;60248;-68
2023/06/08 06:58:19;;;;;;;9.30;6.40;;;;;;;32.58;30.72;100603.30;108062;1254;74286;-68
2023/06/08 07:00:46;;;;;;;9.20;6.00;;;;;;;32.50;30.94;100603.61;108120;1253;69062;-68
2023/06/08 07:03:16;;;;;;;8.70;6.50;;;;;;;32.29;31.47;100607.53;108029;1257;86055;-89
2023/06/08 07:05:45;;;;;;;10.00;6.70;;;;;;;32.17;31.49;100609.67;108044;1254;59152;-88
2023/06/08 07:08:14;;;;;;;12.40;6.50;;;;;;;31.77;32.28;100607.77;108078;1254;60271;-88
2023/06/08 07:10:42;;;;;;;11.70;6.90;;;;;;;31.85;32.21;100607.27;107971;1254;72330;-88
2023/06/08 07:13:15;;;;;;;12.00;6.80;;;;;;;32.26;31.96;100603.10;107863;1260;68730;-85
2023/06/08 07:15:45;;;;;;;11.60;6.90;;;;;;;32.22;31.81;100602.73;107985;1254;71220;-87
2023/06/08 07:18:13;;;;;;;18.10;7.20;;;;;;;32.26;31.54;100602.64;107946;1254;59243;-88
2023/06/08 07:20:40;;;;;;;13.50;7.20;;;;;;;32.36;30.94;100605.91;107991;1254;61112;-88
2023/06/08 07:23:08;;;;;;;10.20;6.40;;;;;;;32.19;31.14;100604.71;107962;1254;75883;-87
2023/06/08 07:25:58;;;;;;;17.90;7.50;;;;;;;32.12;31.64;100604.98;108003;1259;68895;-88
2023/06/08 07:28:46;;;;;;;10.40;6.80;;;;;;;32.24;31.31;100601.55;108155;1254;71382;-88
2023/06/08 07:31:13;;;;;;;16.00;7.30;;;;;;;32.05;31.67;100600.61;108710;1254;59217;-89
2023/06/08 07:33:43;;;;;;;8.70;6.10;;;;;;;32.12;31.31;100604.05;109464;1253;58791;-88
2023/06/08 07:36:15;;;;;;;13.50;6.30;;;;;;;31.67;31.41;100608.54;108813;1253;72896;-88
2023/06/08 07:40:30;;;;;;;11.20;6.40;;;;;;;28.95;35.96;100605.92;105028;1289;600773;-68
2023/06/08 07:42:57;;;;;;;10.80;6.50;;;;;;;31.26;32.82;100608.12;108134;1254;59067;-68
2023/06/08 07:45:25;;;;;;;12.20;6.30;;;;;;;31.56;31.79;100608.59;108196;1253;58991;-67
2023/06/08 07:47:55;;;;;;;10.90;6.80;;;;;;;31.23;31.92;100609.35;108183;1252;72177;-67
2023/06/08 07:50:22;;;;;;;11.10;6.20;;;;;;;30.72;32.59;100607.86;108175;1253;69942;-68
2023/06/08 07:52:50;;;;;;;10.50;6.50;;;;;;;31.29;32.01;100606.63;108133;1254;72584;-68
2023/06/08 07:55:17;;;;;;;9.50;6.50;;;;;;;31.54;32.07;100611.36;108155;1249;205405;-68
2023/06/08 07:57:49;;;;;;;11.90;6.80;;;;;;;31.64;31.50;100614.23;108276;1250;59516;-68
2023/06/08 08:00:19;;;;;;;10.40;6.50;;;;;;;31.38;31.60;100609.96;108233;1251;72376;-68
2023/06/08 08:02:46;;;;;;;12.50;7.20;;;;;;;31.39;31.97;100607.89;108242;1254;68666;-68
2023/06/08 08:05:25;;;;;;;14.60;6.70;;;;;;;31.11;31.96;100603.67;108243;1253;72649;-67
2023/06/08 08:07:53;;;;;;;13.90;6.60;;;;;;;31.16;32.17;100604.67;108148;1254;60530;-68
2023/06/08 08:10:20;;;;;;;10.00;6.90;;;;;;;31.21;32.22;100599.51;108264;1251;59381;-68
2023/06/08 08:12:50;;;;;;;11.50;6.50;;;;;;;30.94;32.53;100600.38;108251;1251;72950;-68
2023/06/08 08:15:17;;;;;;;12.10;6.30;;;;;;;30.88;32.65;100598.25;108346;1251;68709;-68
2023/06/08 08:17:46;;;;;;;9.90;6.10;;;;;;;31.06;32.55;100594.83;108306;1253;71386;-69
2023/06/08 08:20:14;;;;;;;9.60;6.80;;;;;;;31.28;32.25;100599.55;108199;1251;59627;-68
2023/06/08 08:22:41;;;;;;;12.10;6.40;;;;;;;31.13;32.23;100596.55;108212;1251;60486;-67
2023/06/08 08:25:09;;;;;;;10.00;6.00;;;;;;;31.14;32.03;100596.34;108233;1251;75156;-67
2023/06/08 08:27:36;;;;;;;9.80;5.80;;;;;;;31.10;31.68;100599.13;108202;1251;70720;-68
2023/06/08 08:30:06;;;;;;;19.90;6.20;;;;;;;31.06;31.40;100600.10;108153;1254;72648;-69
2023/06/08 08:32:34;;;;;;;10.80;5.70;;;;;;;31.39;31.35;100601.33;108176;1251;59583;-68
2023/06/08 08:35:02;;;;;;;12.20;5.80;;;;;;;31.32;31.50;100601.14;108151;1251;59994;-69
2023/06/08 08:37:32;;;;;;;9.70;5.70;;;;;;;31.47;30.96;100605.52;108041;1251;71831;-68
2023/06/08 08:39:59;;;;;;;8.20;4.10;;;;;;;31.51;30.73;100599.92;108174;1251;70500;-68
2023/06/08 08:42:30;;;;;;;8.40;5.10;;;;;;;31.73;30.67;100607.59;108189;1253;71486;-67
2023/06/08 08:45:00;;;;;;;10.50;6.10;;;;;;;31.61;30.71;100607.17;108067;1251;59595;-68
2023/06/08 08:47:31;;;;;;;15.20;6.30;;;;;;;31.69;30.77;100604.54;108180;1257;59441;-67
2023/06/08 08:50:06;;;;;;;9.70;5.60;;;;;;;32.11;30.26;100600.23;108231;1253;73594;-68
2023/06/08 08:52:37;;;;;;;9.60;5.70;;;;;;;32.17;30.21;100606.27;108142;1253;70595;-67
2023/06/08 08:55:05;;;;;;;11.40;6.40;;;;;;;31.62;30.78;100608.27;108117;1254;72753;-67
2023/06/08 08:57:37;;;;;;;9.50;5.30;;;;;;;30.91;31.80;100606.78;108087;1253;59560;-67
2023/06/08 09:00:10;;;;;;;7.00;5.20;;;;;;;30.49;32.47;100606.27;108061;1253;59351;-68
2023/06/08 09:02:37;;;;;;;7.70;5.40;;;;;;;31.08;31.59;100606.81;108114;1254;71085;-67
2023/06/08 09:05:07;;;;;;;10.90;5.20;;;;;;;31.40;31.23;100610.88;108147;1254;70758;-68
2023/06/08 09:07:37;;;;;;;7.80;5.00;;;;;;;31.21;31.24;100606.86;108095;1254;72721;-67
2023/06/08 09:10:22;;;;;;;8.30;5.00;;;;;;;31.39;31.32;100606.22;108051;1254;59526;-68
2023/06/08 09:12:52;;;;;;;8.20;5.40;;;;;;;31.68;30.89;100607.42;108085;1253;60006;-68
2023/06/08 09:15:31;;;;;;;7.10;5.00;;;;;;;31.77;31.02;100603.05;108159;1253;73407;-68
2023/06/08 09:18:03;;;;;;;9.70;5.80;;;;;;;31.85;31.04;100605.11;108192;1253;70761;-66
2023/06/08 09:20:36;;;;;;;10.10;5.70;;;;;;;31.79;31.22;100601.66;108100;1254;71913;-71
2023/06/08 09:23:15;;;;;;;8.20;5.30;;;;;;;31.46;31.52;100601.23;108034;1253;59647;-67
2023/06/08 09:25:43;;;;;;;9.40;5.30;;;;;;;31.83;30.88;100601.22;108152;1252;59281;-67
2023/06/08 09:28:33;;;;;;;8.10;6.00;;;;;;;31.90;30.72;100602.02;108089;1254;73047;-68
2023/06/08 09:31:01;;;;;;;8.60;6.00;;;;;;;31.97;30.84;100599.86;107974;1254;70722;-68
2023/06/08 09:33:32;;;;;;;7.80;5.60;;;;;;;31.91;30.92;100600.61;107926;1253;72667;-68
2023/06/08 09:36:03;;;;;;;6.90;5.50;;;;;;;31.73;31.03;100601.69;108077;1252;60033;-68
2023/06/08 09:38:33;;;;;;;11.20;6.30;;;;;;;31.68;31.23;100603.77;108105;1253;60316;-67
2023/06/08 09:41:22;;;;;;;12.70;6.10;;;;;;;31.90;30.89;100602.31;108047;1254;72879;-68
2023/06/08 09:43:50;;;;;;;13.20;6.20;;;;;;;31.71;30.80;100602.36;107916;1252;70817;-68
2023/06/08 09:46:39;;;;;;;10.00;5.90;;;;;;;31.63;30.91;100599.41;108048;1253;72664;-68
2023/06/08 09:49:07;;;;;;;11.90;5.80;;;;;;;31.54;30.92;100597.80;108057;1254;60046;-68
2023/06/08 09:51:39;;;;;;;10.30;5.60;;;;;;;31.68;31.13;100591.23;108098;1254;59507;-68
2023/06/08 09:54:07;;;;;;;11.10;6.00;;;;;;;31.54;31.64;100592.64;108117;1254;73040;-67
2023/06/08 09:56:37;;;;;;;9.00;5.70;;;;;;;31.52;31.69;100591.33;107852;1254;69921;-67
2023/06/08 09:59:08;;;;;;;10.00;5.90;;;;;;;31.74;31.72;100585.92;108087;1254;71815;-68
2023/06/08 10:01:40;;;;;;;11.30;6.50;;;;;;;31.77;31.92;100589.61;108086;1254;59629;-68
2023/06/08 10:04:31;;;;;;;10.90;6.70;;;;;;;31.78;32.31;100586.73;107856;1253;59476;-68
2023/06/08 10:07:06;;;;;;;18.50;6.50;;;;;;;32.18;32.13;100584.07;108043;1252;73105;-68
2023/06/08 10:09:37;;;;;;;16.10;6.60;;;;;;;32.39;31.93;100582.83;108045;1253;69056;-67
2023/06/08 10:12:15;;;;;;;11.00;6.10;;;;;;;32.29;31.13;100583.30;108040;1256;72672;-68
2023/06/08 10:14:42;;;;;;;10.60;5.80;;;;;;;31.87;31.61;100585.91;107977;1254;58811;-67
2023/06/08 10:17:15;;;;;;;17.40;6.50;;;;;;;31.94;31.09;100586.52;107915;1253;59585;-69
2023/06/08 10:19:45;;;;;;;10.10;6.80;;;;;;;32.16;31.38;100585.48;108069;1253;73105;-66
2023/06/08 10:22:12;;;;;;;13.70;7.10;;;;;;;32.23;31.70;100583.71;108037;1254;69351;-67
2023/06/08 10:24:45;;;;;;;13.60;6.50;;;;;;;31.60;32.61;100584.66;108082;1254;73259;-68
2023/06/08 10:27:35;;;;;;;10.10;6.20;;;;;;;31.15;33.54;100581.27;108052;1252;59542;-68
2023/06/08 10:30:05;;;;;;;25.50;7.30;;;;;;;31.31;32.49;100579.82;108183;1252;60070;-68
2023/06/08 10:32:34;;;;;;;10.70;6.30;;;;;;;31.26;31.95;100578.72;108126;1254;71930;-68
2023/06/08 10:35:04;;;;;;;12.70;5.80;;;;;;;31.54;31.70;100579.66;108090;1253;68698;-67
2023/06/08 10:37:36;;;;;;;11.00;6.10;;;;;;;31.36;31.70;100585.59;108148;1252;71902;-67
2023/06/08 10:40:08;;;;;;;12.50;6.40;;;;;;;31.03;32.24;100580.54;108140;1253;60556;-68
2023/06/08 10:42:35;;;;;;;12.00;5.80;;;;;;;31.34;31.78;100582.80;108136;1254;60045;-67
2023/06/08 10:45:04;;;;;;;12.80;6.60;;;;;;;31.46;31.62;100583.26;108112;1253;72996;-68
2023/06/08 10:47:39;;;;;;;9.90;7.10;;;;;;;31.46;31.90;100586.73;108150;1254;68775;-68
2023/06/08 10:50:08;;;;;;;8.80;6.70;;;;;;;31.56;31.91;100581.99;108132;1254;72862;-68
2023/06/08 10:52:42;;;;;;;14.10;6.70;;;;;;;31.51;31.97;100579.11;108217;1254;60281;-68
2023/06/08 10:55:15;;;;;;;9.80;6.80;;;;;;;31.93;31.96;100575.76;108112;1253;59497;-68
2023/06/08 10:57:49;;;;;;;9.30;6.90;;;;;;;32.08;31.71;100570.06;108104;1254;73493;-68
2023/06/08 11:00:26;;;;;;;14.50;6.90;;;;;;;32.18;31.91;100570.02;108095;1254;70752;-67
2023/06/08 11:02:58;;;;;;;11.30;6.80;;;;;;;32.14;31.69;100571.31;108136;1253;71809;-68
2023/06/08 11:05:31;;;;;;;11.10;6.40;;;;;;;31.99;30.84;100572.96;108097;1253;59624;-68
2023/06/08 11:08:00;;;;;;;;;;;;;;;32.22;30.16;100575.15;108081;1252;59006;-69
2023/06/08 11:10:28;;;;;;;9.80;6.60;;;;;;;32.11;30.03;100573.06;108116;1254;73034;-68
2023/06/08 11:13:07;;;;;;;14.50;7.00;;;;;;;32.20;30.23;100572.77;108084;1253;70135;-67
2023/06/08 11:15:41;;;;;;;12.80;7.20;;;;;;;32.13;30.53;100570.00;108111;1254;72709;-68
2023/06/08 11:18:12;;;;;;;10.90;7.20;;;;;;;31.97;30.46;100567.48;108095;1254;59097;-67
2023/06/08 11:20:41;;;;;;;11.20;6.90;;;;;;;31.96;30.51;100570.82;108123;1253;59496;-67
2023/06/08 11:23:10;;;;;;;10.20;6.80;;;;;;;32.00;30.37;100565.77;108165;1253;71416;-68
2023/06/08 11:25:40;;;;;;;11.90;6.40;;;;;;;32.31;29.81;100561.31;108094;1254;70153;-67
2023/06/08 11:28:10;;;;;;;11.90;6.80;;;;;;;32.31;29.68;100558.76;108049;1253;71509;-68
2023/06/08 11:30:38;;;;;;;11.20;7.00;;;;;;;31.97;30.26;100557.67;108116;1254;59628;-67
2023/06/08 11:33:08;;;;;;;10.30;6.10;;;;;;;32.15;29.92;100558.50;108056;1253;59619;-68